Time;durP1;ratioP1;P1;durP2;ratioP2;P2;SDS_P1;SDS_P2;PMS_P1;PMS_P2;Temp;Humidity;BMP_temperature;BMP_pressure;BME280_temperature;BME280_humidity;BME280_pressure;Samples;Min_cycle;Max_cycle;Signal;HPM_P1;HPM_P2
2021/10/16 00:00:53;;;;;;;12.15;9.35;;;7.60;99.90;;;;;;4916080;29;20075;-71
2021/10/16 00:03:19;;;;;;;10.63;8.90;;;7.70;99.90;;;;;;4916188;29;20088;-70
2021/10/16 00:05:45;;;;;;;13.48;9.20;;;7.70;99.90;;;;;;4915394;29;20024;-70
2021/10/16 00:08:10;;;;;;;12.38;10.15;;;7.90;99.90;;;;;;4916032;29;20095;-71
2021/10/16 00:10:36;;;;;;;10.98;9.35;;;8.10;99.90;;;;;;4915576;29;20032;-70
2021/10/16 00:13:02;;;;;;;11.15;9.18;;;8.20;99.90;;;;;;4915774;29;20032;-71
2021/10/16 00:15:28;;;;;;;16.17;9.88;;;8.10;99.90;;;;;;4915584;29;20831;-71
2021/10/16 00:17:54;;;;;;;14.77;10.35;;;8.10;99.90;;;;;;4914885;29;20486;-70
2021/10/16 00:20:20;;;;;;;14.38;9.05;;;8.00;99.90;;;;;;4915718;29;20505;-71
2021/10/16 00:22:46;;;;;;;13.68;9.40;;;8.00;99.90;;;;;;4915998;29;20032;-71
2021/10/16 00:25:11;;;;;;;12.27;7.90;;;8.00;99.90;;;;;;4914891;29;20032;-71
2021/10/16 00:27:37;;;;;;;14.30;10.15;;;8.00;99.90;;;;;;4915607;29;20036;-71
2021/10/16 00:30:04;;;;;;;13.65;9.68;;;8.00;99.90;;;;;;4915668;29;20036;-71
2021/10/16 00:32:29;;;;;;;14.35;9.00;;;8.10;99.90;;;;;;4915624;29;20099;-70
2021/10/16 00:34:55;;;;;;;12.38;8.90;;;8.10;99.90;;;;;;4915018;29;20028;-71
2021/10/16 00:37:24;;;;;;;11.88;8.77;;;8.20;99.90;;;;;;4915772;29;20629;-70
2021/10/16 00:39:54;;;;;;;12.70;9.70;;;8.20;99.90;;;;;;4916567;29;20020;-70
2021/10/16 00:42:20;;;;;;;13.88;9.13;;;8.30;99.90;;;;;;4915091;29;20036;-70
2021/10/16 00:44:46;;;;;;;12.55;8.38;;;8.30;99.90;;;;;;4914880;29;20038;-71
2021/10/16 00:47:11;;;;;;;11.75;8.02;;;8.00;99.90;;;;;;4915639;29;20036;-70
2021/10/16 00:49:37;;;;;;;11.77;8.02;;;7.80;99.90;;;;;;4915373;29;20028;-70
2021/10/16 00:52:04;;;;;;;11.52;7.30;;;7.70;99.90;;;;;;4915673;29;20468;-71
2021/10/16 00:54:30;;;;;;;12.05;8.32;;;7.80;99.90;;;;;;4914727;29;20751;-70
2021/10/16 00:56:59;;;;;;;9.82;7.70;;;7.70;99.90;;;;;;4915950;29;20864;-70
2021/10/16 00:59:25;;;;;;;10.73;7.45;;;7.70;99.90;;;;;;4919136;29;20054;-71
2021/10/16 01:01:50;;;;;;;16.13;8.77;;;7.60;99.90;;;;;;4919425;29;20032;-71
2021/10/16 01:04:17;;;;;;;10.85;8.57;;;7.90;99.90;;;;;;4923018;29;20047;-71
2021/10/16 01:06:43;;;;;;;14.18;9.55;;;7.90;99.90;;;;;;4930554;29;20024;-69
2021/10/16 01:09:09;;;;;;;14.30;9.20;;;8.00;99.90;;;;;;4931586;29;20040;-70
2021/10/16 01:11:36;;;;;;;12.77;9.00;;;8.00;99.90;;;;;;4930431;29;20038;-70
2021/10/16 01:14:07;;;;;;;12.20;8.90;;;8.00;99.90;;;;;;4931378;29;20016;-69
2021/10/16 01:16:34;;;;;;;13.57;8.73;;;8.00;99.90;;;;;;4925057;29;20131;-70
2021/10/16 01:19:02;;;;;;;11.93;9.40;;;8.00;99.90;;;;;;4919996;29;20035;-70
2021/10/16 01:21:29;;;;;;;13.93;9.80;;;8.10;99.90;;;;;;4922849;29;20028;-71
2021/10/16 01:23:57;;;;;;;14.23;9.68;;;8.00;99.90;;;;;;4920459;29;20037;-70
2021/10/16 01:26:24;;;;;;;13.50;8.70;;;8.00;99.90;;;;;;4918110;29;20060;-70
2021/10/16 01:28:50;;;;;;;12.43;9.20;;;7.80;99.90;;;;;;4918509;29;20024;-70
2021/10/16 01:31:16;;;;;;;15.00;8.90;;;7.80;99.90;;;;;;4918778;29;20498;-70
2021/10/16 01:33:42;;;;;;;12.73;9.65;;;7.80;99.90;;;;;;4918852;29;20043;-70
2021/10/16 01:36:07;;;;;;;12.20;8.35;;;7.80;99.90;;;;;;4918462;29;20384;-69
2021/10/16 01:38:33;;;;;;;10.50;8.15;;;7.80;99.90;;;;;;4919264;29;20032;-69
2021/10/16 01:40:59;;;;;;;13.05;8.95;;;7.70;99.90;;;;;;4918774;29;20040;-69
2021/10/16 01:43:27;;;;;;;13.20;8.95;;;7.60;99.90;;;;;;4918977;29;20066;-70
2021/10/16 01:45:53;;;;;;;11.85;9.20;;;7.60;99.90;;;;;;4918141;29;20112;-70
2021/10/16 01:48:25;;;;;;;12.95;9.60;;;7.60;99.90;;;;;;4918657;29;20107;-71
2021/10/16 01:50:52;;;;;;;13.75;9.57;;;7.50;99.90;;;;;;4918454;29;20034;-70
2021/10/16 01:53:18;;;;;;;13.25;9.43;;;7.50;99.90;;;;;;4918507;29;20051;-70
2021/10/16 01:55:45;;;;;;;11.43;9.18;;;7.60;99.90;;;;;;4916406;29;20030;-71
2021/10/16 01:58:13;;;;;;;14.45;9.38;;;7.60;99.90;;;;;;4918988;29;20036;-71
2021/10/16 02:00:39;;;;;;;14.60;9.68;;;7.50;99.90;;;;;;4919325;29;20092;-71
2021/10/16 02:03:09;;;;;;;14.57;10.57;;;7.50;99.90;;;;;;4918698;29;20435;-71
2021/10/16 02:05:40;;;;;;;14.82;10.07;;;7.50;99.90;;;;;;4916276;29;20028;-71
2021/10/16 02:08:05;;;;;;;12.48;8.93;;;7.60;99.90;;;;;;4918143;29;20087;-69
2021/10/16 02:10:31;;;;;;;14.38;9.43;;;7.50;99.90;;;;;;4918114;29;20032;-69
2021/10/16 02:12:57;;;;;;;11.57;9.07;;;7.50;99.90;;;;;;4916002;29;20572;-71
2021/10/16 02:15:22;;;;;;;12.20;9.05;;;7.50;99.90;;;;;;4917459;29;20479;-70
2021/10/16 02:17:48;;;;;;;13.02;9.23;;;7.40;99.90;;;;;;4918378;29;20032;-73
2021/10/16 02:20:13;;;;;;;11.27;8.90;;;7.40;99.90;;;;;;4917705;29;20475;-71
2021/10/16 02:22:39;;;;;;;12.85;8.88;;;7.50;99.90;;;;;;4918114;29;20072;-69
2021/10/16 02:25:05;;;;;;;13.57;8.75;;;7.50;99.90;;;;;;4917341;29;20110;-70
2021/10/16 02:27:31;;;;;;;12.20;9.05;;;7.50;99.90;;;;;;4918079;29;20249;-69
2021/10/16 02:29:57;;;;;;;14.85;9.18;;;7.40;99.90;;;;;;4917742;29;20490;-70
2021/10/16 02:32:22;;;;;;;14.18;9.38;;;7.40;99.90;;;;;;4917771;29;20036;-68
2021/10/16 02:34:48;;;;;;;11.38;8.60;;;7.40;99.90;;;;;;4918813;29;20451;-71
2021/10/16 02:37:14;;;;;;;15.57;8.50;;;7.30;99.90;;;;;;4919266;29;20032;-71
2021/10/16 02:39:39;;;;;;;10.57;8.68;;;7.30;99.90;;;;;;4917720;29;20471;-70
2021/10/16 02:42:05;;;;;;;10.52;8.52;;;7.30;99.90;;;;;;4917831;29;20092;-70
2021/10/16 02:44:31;;;;;;;12.38;8.13;;;7.40;99.90;;;;;;4916701;29;20047;-70
2021/10/16 02:46:57;;;;;;;10.20;8.60;;;7.50;99.90;;;;;;4916340;29;20032;-70
2021/10/16 02:49:23;;;;;;;16.63;9.68;;;7.50;99.90;;;;;;4917438;29;20368;-70
2021/10/16 02:51:49;;;;;;;13.57;9.25;;;7.70;99.90;;;;;;4916275;29;20026;-70
2021/10/16 02:54:15;;;;;;;11.45;8.45;;;7.70;99.90;;;;;;4916282;29;20028;-70
2021/10/16 02:56:40;;;;;;;15.23;8.48;;;7.60;99.90;;;;;;4917303;29;20419;-70
2021/10/16 02:59:06;;;;;;;13.32;8.90;;;7.50;99.90;;;;;;4917387;29;20027;-70
2021/10/16 03:01:32;;;;;;;11.20;8.65;;;7.30;99.90;;;;;;4917224;29;20024;-70
2021/10/16 03:03:59;;;;;;;9.90;7.80;;;7.30;99.90;;;;;;4917360;29;20055;-70
2021/10/16 03:06:24;;;;;;;14.00;8.63;;;7.30;99.90;;;;;;4916298;29;20176;-69
2021/10/16 03:08:50;;;;;;;14.38;8.68;;;7.50;99.90;;;;;;4916010;29;20096;-70
2021/10/16 03:11:15;;;;;;;11.32;8.50;;;7.50;99.90;;;;;;4917157;29;20020;-70
2021/10/16 03:13:41;;;;;;;10.52;8.43;;;7.50;99.90;;;;;;4917199;29;20035;-70
2021/10/16 03:16:07;;;;;;;10.70;7.85;;;7.60;99.90;;;;;;4916413;29;20024;-69
2021/10/16 03:18:33;;;;;;;10.45;7.97;;;7.50;99.90;;;;;;4915625;29;20024;-70
2021/10/16 03:20:59;;;;;;;13.27;8.02;;;7.60;99.90;;;;;;4916338;29;20035;-70
2021/10/16 03:23:25;;;;;;;12.73;8.18;;;7.70;99.90;;;;;;4916880;29;20035;-70
2021/10/16 03:25:51;;;;;;;15.55;9.10;;;7.70;99.90;;;;;;4916344;29;20028;-69
2021/10/16 03:28:17;;;;;;;11.82;8.13;;;7.50;99.90;;;;;;4916868;29;20024;-69
2021/10/16 03:30:42;;;;;;;13.73;9.05;;;7.60;99.90;;;;;;4916514;29;20139;-69
2021/10/16 03:33:08;;;;;;;12.13;7.85;;;7.50;99.90;;;;;;4916201;29;20036;-69
2021/10/16 03:35:35;;;;;;;8.68;7.57;;;7.50;99.90;;;;;;4915856;29;20029;-70
2021/10/16 03:38:00;;;;;;;10.82;8.07;;;7.60;99.90;;;;;;4916488;29;20036;-71
2021/10/16 03:40:26;;;;;;;13.65;8.15;;;7.70;99.90;;;;;;4956498;23;20125;-73
2021/10/16 03:42:52;;;;;;;9.27;7.82;;;7.60;99.90;;;;;;4912999;29;20646;-73
2021/10/16 03:45:20;;;;;;;11.90;7.82;;;7.60;99.90;;;;;;4916190;29;20087;-73
2021/10/16 03:47:46;;;;;;;10.88;8.18;;;7.50;99.90;;;;;;4910177;29;20036;-81
2021/10/16 03:50:12;;;;;;;12.82;8.48;;;7.40;99.90;;;;;;4910569;29;20028;-81
2021/10/16 03:52:38;;;;;;;12.68;8.82;;;7.30;99.90;;;;;;4896772;29;20495;-80
2021/10/16 03:55:04;;;;;;;10.43;8.77;;;7.30;99.90;;;;;;4910066;29;20028;-80
2021/10/16 03:57:29;;;;;;;9.13;7.60;;;7.20;99.90;;;;;;4917045;29;20028;-81
2021/10/16 03:59:55;;;;;;;9.60;7.93;;;7.40;99.90;;;;;;4917015;29;20036;-81
2021/10/16 04:02:21;;;;;;;12.65;8.50;;;7.30;99.90;;;;;;4916937;29;20039;-80
2021/10/16 04:04:46;;;;;;;9.25;8.00;;;7.30;99.90;;;;;;4915792;29;20032;-80
2021/10/16 04:07:12;;;;;;;9.82;7.97;;;7.40;99.90;;;;;;4916540;29;20417;-80
2021/10/16 04:09:38;;;;;;;11.50;8.00;;;7.50;99.90;;;;;;4916644;29;20028;-80
2021/10/16 04:12:04;;;;;;;12.48;7.78;;;7.60;99.90;;;;;;4916270;29;20029;-81
2021/10/16 04:14:30;;;;;;;10.15;8.07;;;7.50;99.90;;;;;;4915087;29;20028;-81
2021/10/16 04:16:56;;;;;;;11.05;8.20;;;7.50;99.90;;;;;;4917129;29;20119;-82
2021/10/16 04:19:22;;;;;;;10.48;8.00;;;7.40;99.90;;;;;;4916640;29;20736;-79
2021/10/16 04:21:47;;;;;;;9.27;7.53;;;7.30;99.90;;;;;;4926554;29;20031;-82
2021/10/16 04:24:13;;;;;;;9.82;7.35;;;7.30;99.90;;;;;;4939468;29;20020;-81
2021/10/16 04:26:39;;;;;;;12.32;8.18;;;7.30;99.90;;;;;;4918739;29;20055;-79
2021/10/16 04:29:05;;;;;;;10.38;7.70;;;7.30;99.90;;;;;;4918508;29;20498;-81
2021/10/16 04:31:30;;;;;;;10.70;8.02;;;7.40;99.90;;;;;;4917073;29;20035;-81
2021/10/16 04:33:56;;;;;;;12.73;7.95;;;7.50;99.90;;;;;;4917866;29;20141;-79
2021/10/16 04:36:22;;;;;;;13.27;7.60;;;7.60;99.90;;;;;;4917097;29;20025;-81
2021/10/16 04:38:49;;;;;;;11.60;7.65;;;7.60;99.90;;;;;;4917131;29;20413;-79
2021/10/16 04:41:16;;;;;;;10.27;8.40;;;7.60;99.90;;;;;;4917162;29;20107;-78
2021/10/16 04:43:42;;;;;;;13.32;8.30;;;7.70;99.90;;;;;;4916529;29;20084;-78
2021/10/16 04:46:12;;;;;;;11.25;8.07;;;7.70;99.90;;;;;;4915904;29;20557;-80
2021/10/16 04:48:42;;;;;;;9.80;7.85;;;7.50;99.90;;;;;;4923765;29;20059;-79
2021/10/16 04:51:09;;;;;;;11.10;7.85;;;7.50;99.90;;;;;;4921329;29;20088;-80
2021/10/16 04:53:35;;;;;;;8.52;7.63;;;7.50;99.90;;;;;;4916894;29;20036;-80
2021/10/16 04:56:01;;;;;;;10.20;8.18;;;7.60;99.90;;;;;;4915118;29;20026;-80
2021/10/16 04:58:27;;;;;;;17.08;8.13;;;7.50;99.90;;;;;;4916966;29;20020;-78
2021/10/16 05:00:52;;;;;;;12.68;7.75;;;7.70;99.90;;;;;;4915638;29;20758;-79
2021/10/16 05:03:18;;;;;;;13.25;8.40;;;7.40;99.90;;;;;;4916319;29;20036;-77
2021/10/16 05:05:43;;;;;;;11.85;8.27;;;7.50;99.90;;;;;;4916174;29;20079;-78
2021/10/16 05:08:09;;;;;;;12.43;8.25;;;7.60;99.90;;;;;;4916147;29;20028;-79
2021/10/16 05:10:35;;;;;;;15.43;8.02;;;7.60;99.90;;;;;;4915324;29;20020;-80
2021/10/16 05:13:01;;;;;;;12.57;8.77;;;7.60;99.90;;;;;;4916946;29;20103;-79
2021/10/16 05:15:27;;;;;;;9.93;7.95;;;7.60;99.90;;;;;;4916911;29;20092;-78
2021/10/16 05:17:53;;;;;;;9.32;7.30;;;7.70;99.90;;;;;;4917542;29;20050;-79
2021/10/16 05:20:19;;;;;;;11.27;7.90;;;7.70;99.90;;;;;;4915403;29;20024;-78
2021/10/16 05:22:45;;;;;;;8.52;7.35;;;7.60;99.90;;;;;;4916520;29;20451;-78
2021/10/16 05:25:12;;;;;;;9.85;7.63;;;7.60;99.90;;;;;;4916580;29;20056;-79
2021/10/16 05:27:41;;;;;;;9.85;7.72;;;7.70;99.90;;;;;;4916913;29;20467;-79
2021/10/16 05:30:08;;;;;;;9.80;7.75;;;7.60;99.90;;;;;;4917810;29;20031;-79
2021/10/16 05:32:33;;;;;;;10.85;7.85;;;7.70;99.90;;;;;;4919038;29;20032;-78
2021/10/16 05:34:59;;;;;;;9.30;7.80;;;7.70;99.90;;;;;;4918178;29;20103;-78
2021/10/16 05:37:25;;;;;;;7.95;7.15;;;7.70;99.90;;;;;;4929777;29;20024;-80
2021/10/16 05:39:50;;;;;;;10.20;7.70;;;7.70;99.90;;;;;;4928883;29;20024;-78
2021/10/16 05:42:16;;;;;;;13.25;8.00;;;7.60;99.90;;;;;;4929876;29;20126;-79
2021/10/16 05:44:42;;;;;;;12.80;8.10;;;7.60;99.90;;;;;;4937582;29;20056;-80
2021/10/16 05:47:08;;;;;;;11.88;8.00;;;7.70;99.90;;;;;;4937676;29;20016;-80
2021/10/16 05:49:34;;;;;;;14.52;7.40;;;7.60;99.90;;;;;;4938973;28;20034;-80
2021/10/16 05:52:00;;;;;;;14.10;7.72;;;7.70;99.90;;;;;;4940664;28;20088;-80
2021/10/16 05:54:26;;;;;;;9.43;7.85;;;7.60;99.90;;;;;;4941016;29;20036;-80
2021/10/16 05:56:51;;;;;;;9.80;7.57;;;7.70;99.90;;;;;;4940919;29;20020;-79
2021/10/16 05:59:17;;;;;;;9.65;7.40;;;7.70;99.90;;;;;;4939614;29;20048;-79
2021/10/16 06:01:43;;;;;;;10.15;8.30;;;7.70;99.90;;;;;;4940223;29;20036;-79
2021/10/16 06:04:08;;;;;;;10.10;7.63;;;7.60;99.90;;;;;;4954718;29;20091;-82
2021/10/16 06:06:34;;;;;;;11.27;8.80;;;7.70;99.90;;;;;;4940970;29;20012;-80
2021/10/16 06:08:59;;;;;;;15.18;9.15;;;7.80;99.90;;;;;;4940243;29;20081;-79
2021/10/16 06:11:25;;;;;;;19.60;9.43;;;7.90;99.90;;;;;;4939434;29;20012;-80
2021/10/16 06:13:51;;;;;;;16.63;9.65;;;8.00;99.90;;;;;;4941016;29;20062;-80
2021/10/16 06:16:16;;;;;;;14.07;8.95;;;8.10;99.90;;;;;;4938652;29;20042;-79
2021/10/16 06:18:43;;;;;;;17.73;9.57;;;8.30;99.90;;;;;;4924930;29;20021;-77
2021/10/16 06:21:10;;;;;;;16.00;9.88;;;8.20;99.90;;;;;;4926339;29;20032;-79
2021/10/16 06:23:36;;;;;;;18.45;10.27;;;8.10;99.90;;;;;;4928384;29;20028;-78
2021/10/16 06:26:02;;;;;;;26.45;12.13;;;8.00;99.90;;;;;;4928276;29;20039;-77
2021/10/16 06:28:27;;;;;;;25.33;12.65;;;8.10;99.90;;;;;;4937686;29;20034;-78
2021/10/16 06:30:53;;;;;;;45.13;16.80;;;8.10;99.90;;;;;;4935852;29;20050;-77
2021/10/16 06:33:19;;;;;;;49.78;18.42;;;8.30;99.90;;;;;;4936520;29;20032;-77
2021/10/16 06:35:45;;;;;;;51.22;18.08;;;8.30;99.90;;;;;;4936375;29;20039;-77
2021/10/16 06:38:10;;;;;;;51.28;18.48;;;8.40;99.90;;;;;;4935072;29;20028;-77
2021/10/16 06:40:36;;;;;;;51.50;18.58;;;8.20;99.90;;;;;;4934076;29;20032;-77
2021/10/16 06:43:02;;;;;;;48.08;17.42;;;7.90;99.90;;;;;;4922403;29;20024;-79
2021/10/16 06:45:28;;;;;;;51.60;16.27;;;8.00;99.90;;;;;;4930564;29;20032;-77
2021/10/16 06:47:54;;;;;;;45.97;15.98;;;8.10;99.90;;;;;;4923344;29;20087;-76
2021/10/16 06:50:20;;;;;;;48.78;17.38;;;8.00;99.90;;;;;;4923460;29;20372;-78
2021/10/16 06:52:46;;;;;;;47.42;18.70;;;8.00;99.90;;;;;;4924967;29;20459;-77
2021/10/16 06:55:11;;;;;;;39.75;15.55;;;7.90;99.90;;;;;;4919657;29;20061;-78
2021/10/16 06:57:37;;;;;;;29.85;13.35;;;8.00;99.90;;;;;;4922777;29;20024;-77
2021/10/16 07:00:05;;;;;;;40.08;16.67;;;8.00;99.90;;;;;;4919174;29;20083;-77
2021/10/16 07:02:31;;;;;;;48.20;17.98;;;8.10;99.90;;;;;;4921394;29;20024;-76
2021/10/16 07:04:56;;;;;;;46.25;17.30;;;8.00;99.90;;;;;;4924556;29;20028;-76
2021/10/16 07:07:22;;;;;;;47.80;17.55;;;8.00;99.90;;;;;;4925214;29;20378;-78
2021/10/16 07:09:48;;;;;;;47.35;17.63;;;8.10;99.90;;;;;;4926081;29;20664;-77
2021/10/16 07:12:14;;;;;;;53.13;18.90;;;8.30;99.90;;;;;;4924623;29;20080;-78
2021/10/16 07:14:40;;;;;;;55.08;19.60;;;8.50;99.90;;;;;;4939347;29;20110;-78
2021/10/16 07:17:06;;;;;;;52.05;19.65;;;8.70;99.90;;;;;;4924093;29;20035;-77
2021/10/16 07:19:32;;;;;;;50.40;19.55;;;8.60;99.90;;;;;;4924642;29;20103;-78
2021/10/16 07:21:58;;;;;;;59.10;22.25;;;8.70;99.90;;;;;;4922105;29;20020;-77
2021/10/16 07:24:24;;;;;;;58.28;19.15;;;8.60;99.90;;;;;;4921971;29;20042;-81
2021/10/16 07:26:51;;;;;;;51.33;19.38;;;8.60;99.90;;;;;;4918044;29;20487;-76
2021/10/16 07:29:16;;;;;;;56.25;21.80;;;8.70;99.90;;;;;;4922614;29;20032;-77
2021/10/16 07:31:42;;;;;;;60.35;22.00;;;8.70;99.90;;;;;;4924152;29;20055;-77
2021/10/16 07:34:08;;;;;;;57.33;22.50;;;8.80;99.90;;;;;;4918288;29;20435;-79
2021/10/16 07:36:37;;;;;;;65.22;22.98;;;8.90;99.90;;;;;;4916625;29;20028;-79
2021/10/16 07:39:05;;;;;;;70.18;25.10;;;8.90;99.90;;;;;;4920128;29;20032;-78
2021/10/16 07:41:31;;;;;;;63.42;24.75;;;8.80;99.90;;;;;;4921627;29;20039;-78
2021/10/16 07:43:56;;;;;;;67.68;26.15;;;8.80;99.90;;;;;;4922467;29;20036;-78
2021/10/16 07:46:22;;;;;;;58.40;23.92;;;8.90;99.90;;;;;;4926210;29;20040;-80
2021/10/16 07:48:48;;;;;;;74.60;26.25;;;8.90;99.90;;;;;;4928681;29;20039;-77
2021/10/16 07:51:14;;;;;;;59.85;24.95;;;9.00;99.90;;;;;;4922798;29;20035;-79
2021/10/16 07:53:40;;;;;;;66.25;25.30;;;9.10;99.90;;;;;;4921138;29;20074;-77
2021/10/16 07:56:06;;;;;;;56.95;23.83;;;9.20;99.90;;;;;;4916126;29;20028;-77
2021/10/16 07:58:31;;;;;;;63.30;25.13;;;8.70;99.90;;;;;;4916659;29;20028;-79
2021/10/16 08:00:58;;;;;;;61.50;25.92;;;8.90;99.90;;;;;;4921595;29;20039;-76
2021/10/16 08:03:24;;;;;;;72.05;24.77;;;8.90;99.90;;;;;;4917748;29;20036;-76
2021/10/16 08:05:50;;;;;;;64.57;24.60;;;9.10;99.90;;;;;;4915666;29;20032;-76
2021/10/16 08:08:15;;;;;;;64.28;25.20;;;9.50;99.90;;;;;;4916277;29;20032;-76
2021/10/16 08:10:41;;;;;;;52.90;23.48;;;9.90;99.90;;;;;;4916565;29;20031;-75
2021/10/16 08:13:07;;;;;;;58.85;24.17;;;10.10;99.90;;;;;;4916381;29;20099;-76
2021/10/16 08:15:34;;;;;;;65.20;25.10;;;10.20;99.90;;;;;;4915645;29;20028;-76
2021/10/16 08:18:01;;;;;;;61.63;24.30;;;10.60;99.90;;;;;;4916280;29;20084;-76
2021/10/16 08:20:27;;;;;;;54.80;22.65;;;10.60;99.90;;;;;;4914510;29;20024;-76
2021/10/16 08:22:53;;;;;;;69.90;30.13;;;10.80;99.90;;;;;;4915721;29;20051;-76
2021/10/16 08:25:18;;;;;;;58.63;23.98;;;10.80;99.90;;;;;;4915924;29;20035;-75
2021/10/16 08:27:47;;;;;;;50.63;21.38;;;11.10;99.90;;;;;;4917873;29;20083;-76
2021/10/16 08:30:13;;;;;;;50.42;22.35;;;11.10;99.90;;;;;;4915390;29;20037;-78
2021/10/16 08:32:39;;;;;;;52.08;23.35;;;10.80;99.90;;;;;;4907121;29;20032;-78
2021/10/16 08:35:06;;;;;;;50.10;22.67;;;10.40;99.90;;;;;;4913251;29;20115;-78
2021/10/16 08:37:32;;;;;;;55.08;22.80;;;10.20;99.90;;;;;;4917893;29;20502;-78
2021/10/16 08:39:57;;;;;;;41.65;20.42;;;10.30;99.90;;;;;;4916167;29;20028;-77
2021/10/16 08:42:23;;;;;;;46.65;22.13;;;10.60;99.90;;;;;;4916255;29;20079;-79
2021/10/16 08:44:49;;;;;;;44.53;21.55;;;10.90;99.90;;;;;;4917273;29;20028;-79
2021/10/16 08:47:17;;;;;;;46.83;20.70;;;10.90;99.90;;;;;;4917580;29;20060;-80
2021/10/16 08:49:45;;;;;;;38.92;20.23;;;10.90;99.90;;;;;;4915833;29;20028;-78
2021/10/16 08:52:11;;;;;;;40.67;21.02;;;11.20;99.90;;;;;;4916779;29;20527;-79
2021/10/16 08:54:39;;;;;;;38.80;19.63;;;11.40;99.90;;;;;;4915483;29;20036;-77
2021/10/16 08:57:05;;;;;;;37.85;19.48;;;11.40;99.90;;;;;;4917252;29;20460;-77
2021/10/16 08:59:31;;;;;;;34.05;18.45;;;11.00;99.90;;;;;;4917179;29;20025;-79
2021/10/16 09:01:59;;;;;;;32.92;18.73;;;10.90;99.90;;;;;;4916862;29;20056;-77
2021/10/16 09:04:25;;;;;;;36.40;19.98;;;11.30;99.90;;;;;;4916345;29;20050;-75
2021/10/16 09:06:51;;;;;;;32.63;18.92;;;11.80;99.90;;;;;;4916659;29;20039;-77
2021/10/16 09:09:23;;;;;;;32.33;18.35;;;12.30;99.90;;;;;;4916972;29;20021;-75
2021/10/16 09:11:53;;;;;;;29.85;17.38;;;12.50;99.90;;;;;;4917119;29;20399;-77
2021/10/16 09:14:23;;;;;;;33.28;18.63;;;12.60;99.90;;;;;;4915389;29;20028;-76
2021/10/16 09:16:53;;;;;;;34.97;18.17;;;12.80;99.90;;;;;;4916725;29;20429;-76
2021/10/16 09:19:26;;;;;;;33.05;17.63;;;13.00;99.90;;;;;;4919915;29;20028;-75
2021/10/16 09:22:02;;;;;;;32.25;18.83;;;13.00;99.90;;;;;;4919615;29;20394;-76
2021/10/16 09:24:36;;;;;;;30.08;17.73;;;13.30;99.90;;;;;;4918451;29;20513;-76
2021/10/16 09:27:02;;;;;;;31.10;19.00;;;14.60;99.90;;;;;;4919967;29;20032;-75
2021/10/16 09:29:29;;;;;;;31.63;18.50;;;14.60;99.90;;;;;;4918913;29;20035;-75
2021/10/16 09:32:00;;;;;;;31.73;17.67;;;14.60;99.90;;;;;;4918203;29;20523;-76
2021/10/16 09:34:35;;;;;;;29.58;16.50;;;14.20;99.90;;;;;;4918362;29;20035;-77
2021/10/16 09:37:08;;;;;;;27.40;16.92;;;14.30;99.90;;;;;;4919740;29;20035;-75
2021/10/16 09:39:36;;;;;;;28.38;17.95;;;14.20;99.90;;;;;;4914508;29;20024;-76
2021/10/16 09:42:03;;;;;;;32.22;18.15;;;13.40;99.90;;;;;;4914570;29;20056;-74
2021/10/16 09:44:35;;;;;;;30.92;18.67;;;13.80;99.90;;;;;;4989992;23;20436;-77
2021/10/16 09:47:15;;;;;;;27.98;17.30;;;14.70;99.90;;;;;;4900651;29;20035;-77
2021/10/16 09:50:09;;;;;;;27.70;16.35;;;15.40;99.90;;;;;;4901286;29;20491;-77
2021/10/16 09:52:40;;;;;;;26.65;16.95;;;14.80;99.90;;;;;;4900513;29;20049;-78
2021/10/16 09:55:11;;;;;;;23.52;16.42;;;15.60;99.90;;;;;;4900086;29;20364;-78
2021/10/16 09:57:39;;;;;;;23.48;15.00;;;16.10;99.90;;;;;;4901223;29;20120;-78
2021/10/16 10:00:06;;;;;;;20.35;13.38;;;17.00;99.90;;;;;;4899945;29;20088;-77
2021/10/16 10:02:33;;;;;;;19.83;13.25;;;17.40;99.90;;;;;;4900668;29;20439;-79
2021/10/16 10:05:03;;;;;;;19.27;13.57;;;17.40;99.90;;;;;;4903124;29;20919;-77
2021/10/16 10:07:33;;;;;;;17.98;12.38;;;18.40;99.90;;;;;;4918704;29;20119;-77
2021/10/16 10:09:59;;;;;;;17.90;11.88;;;18.70;99.90;;;;;;4918774;29;20028;-77
2021/10/16 10:12:26;;;;;;;22.27;12.45;;;18.40;99.90;;;;;;4919634;29;20435;-73
2021/10/16 10:14:53;;;;;;;19.30;13.23;;;19.60;99.90;;;;;;4917948;29;20487;-71
2021/10/16 10:20:45;;;;;;;14.57;10.32;;;24.60;95.70;;;;;;4917646;29;20168;-68
2021/10/16 10:23:22;;;;;;;16.35;11.95;;;23.50;94.30;;;;;;4916928;29;20583;-68
2021/10/16 10:25:48;;;;;;;31.05;13.18;;;22.70;95.80;;;;;;4917176;29;20689;-71
2021/10/16 10:28:14;;;;;;;14.27;10.07;;;22.80;96.20;;;;;;4917814;29;20035;-76
2021/10/16 10:30:45;;;;;;;14.68;9.93;;;21.40;96.60;;;;;;4918336;29;20056;-72
2021/10/16 10:33:20;;;;;;;13.38;9.70;;;20.40;98.40;;;;;;4917652;29;20494;-72
2021/10/16 10:35:57;;;;;;;11.80;8.35;;;19.20;99.90;;;;;;4917410;29;20034;-66
2021/10/16 10:38:39;;;;;;;14.40;10.70;;;18.40;99.90;;;;;;4918462;29;20151;-64
2021/10/16 10:41:29;;;;;;;12.50;10.35;;;17.80;99.90;;;;;;4917256;29;20028;-66
2021/10/16 10:43:55;;;;;;;15.32;10.38;;;17.40;99.90;;;;;;4903369;29;20548;-65
2021/10/16 10:46:25;;;;;;;14.38;9.98;;;17.10;99.90;;;;;;4897600;29;20040;-66
2021/10/16 10:48:51;;;;;;;13.20;9.63;;;17.10;99.90;;;;;;4898059;29;20084;-72
2021/10/16 10:51:36;;;;;;;19.63;9.40;;;17.20;99.90;;;;;;4898207;29;20025;-71
2021/10/16 10:54:20;;;;;;;14.55;9.18;;;17.50;99.90;;;;;;4912124;29;20487;-72
2021/10/16 10:56:56;;;;;;;15.45;10.20;;;17.80;99.90;;;;;;4916915;29;20032;-72
2021/10/16 10:59:21;;;;;;;15.82;12.63;;;17.80;99.90;;;;;;4917260;29;20024;-71
2021/10/16 11:01:58;;;;;;;12.52;9.65;;;17.90;99.90;;;;;;4916974;29;20088;-71
2021/10/16 11:04:47;;;;;;;12.95;9.60;;;18.10;99.90;;;;;;4916535;29;20058;-72
2021/10/16 11:07:17;;;;;;;10.35;7.80;;;18.10;99.90;;;;;;4915553;29;20031;-71
2021/10/16 11:09:43;;;;;;;13.27;10.43;;;19.20;99.90;;;;;;4917091;29;20028;-71
2021/10/16 11:12:11;;;;;;;14.45;8.73;;;19.50;99.90;;;;;;4916903;29;20056;-70
2021/10/16 11:14:42;;;;;;;10.75;7.85;;;19.20;99.90;;;;;;4915933;29;20031;-71
2021/10/16 11:17:13;;;;;;;13.13;9.25;;;18.80;99.90;;;;;;4916971;29;20028;-72
2021/10/16 11:19:55;;;;;;;9.67;8.13;;;18.20;99.90;;;;;;4916791;29;20191;-72
2021/10/16 11:22:24;;;;;;;11.80;9.00;;;17.80;99.90;;;;;;4916668;29;20115;-72
2021/10/16 11:25:00;;;;;;;12.25;8.57;;;17.30;99.90;;;;;;4914554;29;20127;-72
2021/10/16 11:27:26;;;;;;;13.07;8.85;;;17.10;99.90;;;;;;4916691;29;20039;-72
2021/10/16 11:29:52;;;;;;;12.10;9.65;;;16.70;99.90;;;;;;4916573;29;20020;-72
2021/10/16 11:32:21;;;;;;;16.42;10.68;;;16.50;99.90;;;;;;4916278;29;20108;-71
2021/10/16 11:34:58;;;;;;;12.00;8.48;;;16.80;99.90;;;;;;4914463;29;20548;-71
2021/10/16 11:37:43;;;;;;;13.27;8.77;;;16.20;99.90;;;;;;4916164;29;20025;-70
2021/10/16 11:40:12;;;;;;;12.63;7.90;;;16.20;99.90;;;;;;4916096;29;20455;-70
2021/10/16 11:42:42;;;;;;;11.07;8.50;;;16.30;99.90;;;;;;4912103;29;20031;-70
2021/10/16 11:45:12;;;;;;;9.88;8.00;;;17.50;99.90;;;;;;4896799;29;20051;-71
2021/10/16 11:47:44;;;;;;;11.93;8.88;;;18.60;99.90;;;;;;4897333;29;20060;-73
2021/10/16 11:50:17;;;;;;;10.67;8.13;;;19.50;99.90;;;;;;4896020;29;20710;-72
2021/10/16 11:52:44;;;;;;;11.52;8.25;;;20.30;99.90;;;;;;4897070;29;20352;-72
2021/10/16 11:55:18;;;;;;;9.15;7.50;;;20.90;99.70;;;;;;4896460;29;20027;-73
2021/10/16 11:57:45;;;;;;;9.00;6.63;;;21.70;97.40;;;;;;4897528;29;20080;-73
2021/10/16 12:00:24;;;;;;;9.68;6.28;;;21.80;96.50;;;;;;4896710;29;20021;-73
2021/10/16 12:02:51;;;;;;;8.48;6.65;;;22.40;95.60;;;;;;4897071;29;20033;-73
2021/10/16 12:05:18;;;;;;;8.55;6.07;;;22.80;95.10;;;;;;4904205;29;20091;-74
2021/10/16 12:07:45;;;;;;;6.18;5.55;;;23.30;93.70;;;;;;4914932;29;20663;-73
2021/10/16 12:10:26;;;;;;;6.80;6.10;;;23.90;92.80;;;;;;4915744;29;20028;-73
2021/10/16 12:13:04;;;;;;;6.95;5.55;;;22.80;92.60;;;;;;4915613;29;20082;-73
2021/10/16 12:15:50;;;;;;;6.15;5.55;;;23.30;93.60;;;;;;4915141;29;20032;-74
2021/10/16 12:18:24;;;;;;;6.65;5.57;;;24.50;91.20;;;;;;4915853;29;20032;-73
2021/10/16 12:20:57;;;;;;;7.22;6.20;;;23.60;92.20;;;;;;4915444;29;20044;-73
2021/10/16 12:23:24;;;;;;;8.38;6.88;;;23.70;91.50;;;;;;4900128;29;20604;-73
2021/10/16 12:25:56;;;;;;;9.30;6.78;;;23.90;91.60;;;;;;4876931;29;20045;-73
2021/10/16 12:28:23;;;;;;;8.27;5.97;;;23.30;92.60;;;;;;4878200;29;20475;-71
2021/10/16 12:31:07;;;;;;;7.70;6.90;;;23.20;92.90;;;;;;4878919;29;20224;-77
2021/10/16 12:34:02;;;;;;;12.43;6.65;;;24.20;92.30;;;;;;4901659;29;20593;-78
2021/10/16 12:36:35;;;;;;;9.95;6.68;;;24.40;92.30;;;;;;4900980;29;20036;-78
2021/10/16 12:39:03;;;;;;;9.75;6.38;;;24.50;92.40;;;;;;4917110;29;20542;-76
2021/10/16 12:41:34;;;;;;;6.72;5.25;;;24.60;92.10;;;;;;4894717;29;20064;-77
2021/10/16 12:44:28;;;;;;;7.65;6.38;;;24.60;92.20;;;;;;4892544;29;20083;-77
2021/10/16 12:47:09;;;;;;;10.73;7.97;;;24.70;90.90;;;;;;4897375;29;20202;-76